sensor_id;sensor_type;location;lat;lon;timestamp;P1;durP1;ratioP1;P2;durP2;ratioP2
52708;SDS011;38606;52.986;6.980;2024-03-25T00:00:16;18.98;;;3.63;;
52708;SDS011;38606;52.986;6.980;2024-03-25T00:02:43;20.50;;;4.13;;
52708;SDS011;38606;52.986;6.980;2024-03-25T00:05:09;19.42;;;3.13;;
52708;SDS011;38606;52.986;6.980;2024-03-25T00:07:36;21.25;;;2.80;;
52708;SDS011;38606;52.986;6.980;2024-03-25T00:10:02;19.85;;;2.60;;
52708;SDS011;38606;52.986;6.980;2024-03-25T00:12:28;13.63;;;2.30;;
52708;SDS011;38606;52.986;6.980;2024-03-25T00:14:54;16.65;;;3.03;;
52708;SDS011;38606;52.986;6.980;2024-03-25T00:17:20;17.77;;;2.63;;
52708;SDS011;38606;52.986;6.980;2024-03-25T00:19:46;21.33;;;3.03;;
52708;SDS011;38606;52.986;6.980;2024-03-25T00:22:16;19.40;;;3.08;;
52708;SDS011;38606;52.986;6.980;2024-03-25T00:24:42;14.93;;;2.70;;
52708;SDS011;38606;52.986;6.980;2024-03-25T00:27:08;20.23;;;2.65;;
52708;SDS011;38606;52.986;6.980;2024-03-25T00:29:34;14.38;;;2.78;;
52708;SDS011;38606;52.986;6.980;2024-03-25T00:31:59;19.67;;;2.90;;
52708;SDS011;38606;52.986;6.980;2024-03-25T00:34:25;14.88;;;2.40;;
52708;SDS011;38606;52.986;6.980;2024-03-25T00:36:51;20.50;;;3.03;;
52708;SDS011;38606;52.986;6.980;2024-03-25T00:39:16;20.40;;;2.92;;
52708;SDS011;38606;52.986;6.980;2024-03-25T00:41:42;24.05;;;2.80;;
52708;SDS011;38606;52.986;6.980;2024-03-25T00:44:08;19.42;;;2.53;;
52708;SDS011;38606;52.986;6.980;2024-03-25T00:46:33;23.08;;;3.30;;
52708;SDS011;38606;52.986;6.980;2024-03-25T00:48:59;13.05;;;2.22;;
52708;SDS011;38606;52.986;6.980;2024-03-25T00:51:25;14.98;;;2.80;;
52708;SDS011;38606;52.986;6.980;2024-03-25T00:53:50;23.35;;;2.60;;
52708;SDS011;38606;52.986;6.980;2024-03-25T00:56:16;17.15;;;2.88;;
52708;SDS011;38606;52.986;6.980;2024-03-25T00:58:41;22.25;;;2.90;;
52708;SDS011;38606;52.986;6.980;2024-03-25T01:01:07;14.50;;;2.47;;
52708;SDS011;38606;52.986;6.980;2024-03-25T01:03:33;20.02;;;2.35;;
52708;SDS011;38606;52.986;6.980;2024-03-25T01:05:59;13.05;;;2.15;;
52708;SDS011;38606;52.986;6.980;2024-03-25T01:08:24;15.05;;;2.60;;
52708;SDS011;38606;52.986;6.980;2024-03-25T01:10:50;21.27;;;2.90;;
52708;SDS011;38606;52.986;6.980;2024-03-25T01:13:16;14.50;;;2.20;;
52708;SDS011;38606;52.986;6.980;2024-03-25T01:15:41;16.65;;;2.53;;
52708;SDS011;38606;52.986;6.980;2024-03-25T01:18:07;16.95;;;2.20;;
52708;SDS011;38606;52.986;6.980;2024-03-25T01:20:33;14.05;;;2.58;;
52708;SDS011;38606;52.986;6.980;2024-03-25T01:22:59;18.48;;;2.30;;
52708;SDS011;38606;52.986;6.980;2024-03-25T01:25:24;18.58;;;2.90;;
52708;SDS011;38606;52.986;6.980;2024-03-25T01:27:50;16.52;;;2.38;;
52708;SDS011;38606;52.986;6.980;2024-03-25T01:30:17;20.08;;;2.17;;
52708;SDS011;38606;52.986;6.980;2024-03-25T01:32:44;13.75;;;2.25;;
52708;SDS011;38606;52.986;6.980;2024-03-25T01:35:12;18.58;;;2.42;;
52708;SDS011;38606;52.986;6.980;2024-03-25T01:37:38;19.40;;;2.72;;
52708;SDS011;38606;52.986;6.980;2024-03-25T01:40:04;15.20;;;3.15;;
52708;SDS011;38606;52.986;6.980;2024-03-25T01:42:30;18.55;;;2.47;;
52708;SDS011;38606;52.986;6.980;2024-03-25T01:44:56;18.85;;;2.50;;
52708;SDS011;38606;52.986;6.980;2024-03-25T01:47:21;16.40;;;2.30;;
52708;SDS011;38606;52.986;6.980;2024-03-25T01:49:47;19.83;;;3.15;;
52708;SDS011;38606;52.986;6.980;2024-03-25T01:52:15;16.77;;;2.88;;
52708;SDS011;38606;52.986;6.980;2024-03-25T01:54:41;20.63;;;2.72;;
52708;SDS011;38606;52.986;6.980;2024-03-25T01:57:07;20.00;;;2.30;;
52708;SDS011;38606;52.986;6.980;2024-03-25T01:59:33;19.55;;;2.88;;
52708;SDS011;38606;52.986;6.980;2024-03-25T02:01:59;10.82;;;2.63;;
52708;SDS011;38606;52.986;6.980;2024-03-25T02:04:25;12.60;;;2.30;;
52708;SDS011;38606;52.986;6.980;2024-03-25T02:06:52;18.90;;;3.33;;
52708;SDS011;38606;52.986;6.980;2024-03-25T02:09:20;11.57;;;2.92;;
52708;SDS011;38606;52.986;6.980;2024-03-25T02:11:47;11.40;;;2.45;;
52708;SDS011;38606;52.986;6.980;2024-03-25T02:14:13;14.35;;;2.33;;
52708;SDS011;38606;52.986;6.980;2024-03-25T02:16:39;19.17;;;3.47;;
52708;SDS011;38606;52.986;6.980;2024-03-25T02:19:04;15.40;;;4.03;;
52708;SDS011;38606;52.986;6.980;2024-03-25T02:21:30;13.68;;;2.35;;
52708;SDS011;38606;52.986;6.980;2024-03-25T02:23:56;22.52;;;2.70;;
52708;SDS011;38606;52.986;6.980;2024-03-25T02:26:24;20.77;;;2.75;;
52708;SDS011;38606;52.986;6.980;2024-03-25T02:28:50;19.58;;;2.90;;
52708;SDS011;38606;52.986;6.980;2024-03-25T02:31:16;14.27;;;3.17;;
52708;SDS011;38606;52.986;6.980;2024-03-25T02:33:42;16.55;;;2.75;;
52708;SDS011;38606;52.986;6.980;2024-03-25T02:36:08;18.20;;;2.92;;
52708;SDS011;38606;52.986;6.980;2024-03-25T02:38:34;17.23;;;2.53;;
52708;SDS011;38606;52.986;6.980;2024-03-25T02:41:00;19.05;;;3.03;;
52708;SDS011;38606;52.986;6.980;2024-03-25T02:43:26;13.90;;;2.60;;
52708;SDS011;38606;52.986;6.980;2024-03-25T02:45:52;15.20;;;2.63;;
52708;SDS011;38606;52.986;6.980;2024-03-25T02:48:17;16.88;;;2.53;;
52708;SDS011;38606;52.986;6.980;2024-03-25T02:50:43;19.08;;;3.10;;
52708;SDS011;38606;52.986;6.980;2024-03-25T02:53:09;21.67;;;2.85;;
52708;SDS011;38606;52.986;6.980;2024-03-25T02:55:34;24.70;;;2.70;;
52708;SDS011;38606;52.986;6.980;2024-03-25T02:58:00;17.63;;;2.80;;
52708;SDS011;38606;52.986;6.980;2024-03-25T03:00:25;16.25;;;2.30;;
52708;SDS011;38606;52.986;6.980;2024-03-25T03:02:52;11.43;;;2.50;;
52708;SDS011;38606;52.986;6.980;2024-03-25T03:05:18;11.93;;;2.03;;
52708;SDS011;38606;52.986;6.980;2024-03-25T03:07:43;18.38;;;2.88;;
52708;SDS011;38606;52.986;6.980;2024-03-25T03:10:09;15.43;;;2.63;;
52708;SDS011;38606;52.986;6.980;2024-03-25T03:12:35;14.07;;;2.00;;
52708;SDS011;38606;52.986;6.980;2024-03-25T03:15:00;17.05;;;2.97;;
52708;SDS011;38606;52.986;6.980;2024-03-25T03:17:26;16.33;;;2.78;;
52708;SDS011;38606;52.986;6.980;2024-03-25T03:19:52;15.50;;;2.55;;
52708;SDS011;38606;52.986;6.980;2024-03-25T03:22:17;15.68;;;2.42;;
52708;SDS011;38606;52.986;6.980;2024-03-25T03:24:43;18.75;;;2.67;;
52708;SDS011;38606;52.986;6.980;2024-03-25T03:27:09;15.87;;;2.10;;
52708;SDS011;38606;52.986;6.980;2024-03-25T03:29:34;16.75;;;2.50;;
52708;SDS011;38606;52.986;6.980;2024-03-25T03:32:00;13.73;;;1.98;;
52708;SDS011;38606;52.986;6.980;2024-03-25T03:34:26;13.88;;;2.83;;
52708;SDS011;38606;52.986;6.980;2024-03-25T03:36:51;13.82;;;2.20;;
52708;SDS011;38606;52.986;6.980;2024-03-25T03:39:17;17.38;;;2.35;;
52708;SDS011;38606;52.986;6.980;2024-03-25T03:41:42;12.60;;;2.92;;
52708;SDS011;38606;52.986;6.980;2024-03-25T03:44:08;17.23;;;2.35;;
52708;SDS011;38606;52.986;6.980;2024-03-25T03:46:34;18.38;;;2.63;;
52708;SDS011;38606;52.986;6.980;2024-03-25T03:49:00;18.50;;;2.88;;
52708;SDS011;38606;52.986;6.980;2024-03-25T03:51:26;17.10;;;2.78;;
52708;SDS011;38606;52.986;6.980;2024-03-25T03:53:51;17.58;;;3.33;;
52708;SDS011;38606;52.986;6.980;2024-03-25T03:56:17;12.63;;;2.03;;
52708;SDS011;38606;52.986;6.980;2024-03-25T03:58:43;11.65;;;2.42;;
52708;SDS011;38606;52.986;6.980;2024-03-25T04:01:18;15.93;;;2.45;;
52708;SDS011;38606;52.986;6.980;2024-03-25T04:03:44;12.00;;;2.20;;
52708;SDS011;38606;52.986;6.980;2024-03-25T04:06:10;16.80;;;2.13;;
52708;SDS011;38606;52.986;6.980;2024-03-25T04:08:40;15.18;;;2.72;;
52708;SDS011;38606;52.986;6.980;2024-03-25T04:11:06;15.05;;;4.15;;
52708;SDS011;38606;52.986;6.980;2024-03-25T04:13:33;19.75;;;3.40;;
52708;SDS011;38606;52.986;6.980;2024-03-25T04:16:02;15.80;;;2.00;;
52708;SDS011;38606;52.986;6.980;2024-03-25T04:18:29;14.40;;;2.13;;
52708;SDS011;38606;52.986;6.980;2024-03-25T04:20:56;14.35;;;2.15;;
52708;SDS011;38606;52.986;6.980;2024-03-25T04:23:22;13.73;;;2.40;;
52708;SDS011;38606;52.986;6.980;2024-03-25T04:25:48;15.75;;;2.20;;
52708;SDS011;38606;52.986;6.980;2024-03-25T04:28:14;10.50;;;2.38;;
52708;SDS011;38606;52.986;6.980;2024-03-25T04:30:40;15.55;;;2.42;;
52708;SDS011;38606;52.986;6.980;2024-03-25T04:33:06;15.77;;;2.15;;
52708;SDS011;38606;52.986;6.980;2024-03-25T04:35:33;18.63;;;2.42;;
52708;SDS011;38606;52.986;6.980;2024-03-25T04:37:59;13.60;;;2.35;;
52708;SDS011;38606;52.986;6.980;2024-03-25T04:40:24;16.17;;;1.80;;
52708;SDS011;38606;52.986;6.980;2024-03-25T04:42:50;13.70;;;1.92;;
52708;SDS011;38606;52.986;6.980;2024-03-25T04:45:16;18.10;;;2.05;;
52708;SDS011;38606;52.986;6.980;2024-03-25T04:47:41;15.90;;;2.33;;
52708;SDS011;38606;52.986;6.980;2024-03-25T04:50:07;21.58;;;2.42;;
52708;SDS011;38606;52.986;6.980;2024-03-25T04:52:34;13.30;;;2.00;;
52708;SDS011;38606;52.986;6.980;2024-03-25T04:54:59;20.23;;;2.97;;
52708;SDS011;38606;52.986;6.980;2024-03-25T04:57:25;17.55;;;2.25;;
52708;SDS011;38606;52.986;6.980;2024-03-25T04:59:51;21.23;;;2.60;;
52708;SDS011;38606;52.986;6.980;2024-03-25T05:02:17;12.43;;;2.78;;
52708;SDS011;38606;52.986;6.980;2024-03-25T05:04:43;17.88;;;2.25;;
52708;SDS011;38606;52.986;6.980;2024-03-25T05:07:08;14.32;;;2.20;;
52708;SDS011;38606;52.986;6.980;2024-03-25T05:09:35;13.65;;;2.10;;
52708;SDS011;38606;52.986;6.980;2024-03-25T05:12:01;20.70;;;2.30;;
52708;SDS011;38606;52.986;6.980;2024-03-25T05:14:26;12.35;;;2.03;;
52708;SDS011;38606;52.986;6.980;2024-03-25T05:16:52;19.33;;;2.58;;
52708;SDS011;38606;52.986;6.980;2024-03-25T05:19:18;16.67;;;2.90;;
52708;SDS011;38606;52.986;6.980;2024-03-25T05:21:44;16.17;;;2.60;;
52708;SDS011;38606;52.986;6.980;2024-03-25T05:24:10;15.35;;;2.33;;
52708;SDS011;38606;52.986;6.980;2024-03-25T05:26:36;15.82;;;2.10;;
52708;SDS011;38606;52.986;6.980;2024-03-25T05:29:01;9.75;;;2.00;;
52708;SDS011;38606;52.986;6.980;2024-03-25T05:31:27;18.35;;;2.60;;
52708;SDS011;38606;52.986;6.980;2024-03-25T05:33:53;21.50;;;2.47;;
52708;SDS011;38606;52.986;6.980;2024-03-25T05:36:19;14.25;;;3.58;;
52708;SDS011;38606;52.986;6.980;2024-03-25T05:38:45;17.30;;;2.42;;
52708;SDS011;38606;52.986;6.980;2024-03-25T05:41:10;14.80;;;2.80;;
52708;SDS011;38606;52.986;6.980;2024-03-25T05:43:36;12.77;;;2.20;;
52708;SDS011;38606;52.986;6.980;2024-03-25T05:46:02;11.68;;;2.38;;
52708;SDS011;38606;52.986;6.980;2024-03-25T05:48:28;11.18;;;2.60;;
52708;SDS011;38606;52.986;6.980;2024-03-25T05:51:02;28.05;;;2.75;;
52708;SDS011;38606;52.986;6.980;2024-03-25T05:53:35;20.88;;;3.78;;
52708;SDS011;38606;52.986;6.980;2024-03-25T05:56:03;18.10;;;2.67;;
52708;SDS011;38606;52.986;6.980;2024-03-25T05:58:29;14.05;;;2.28;;
52708;SDS011;38606;52.986;6.980;2024-03-25T06:00:54;20.35;;;2.50;;
52708;SDS011;38606;52.986;6.980;2024-03-25T06:03:20;18.00;;;2.35;;
52708;SDS011;38606;52.986;6.980;2024-03-25T06:05:47;13.50;;;2.55;;
52708;SDS011;38606;52.986;6.980;2024-03-25T06:08:13;13.57;;;2.42;;
52708;SDS011;38606;52.986;6.980;2024-03-25T06:11:03;18.17;;;2.03;;
52708;SDS011;38606;52.986;6.980;2024-03-25T06:13:28;16.23;;;3.00;;
52708;SDS011;38606;52.986;6.980;2024-03-25T06:15:54;9.10;;;1.85;;
52708;SDS011;38606;52.986;6.980;2024-03-25T06:18:20;12.02;;;1.88;;
52708;SDS011;38606;52.986;6.980;2024-03-25T06:20:46;15.90;;;2.30;;
52708;SDS011;38606;52.986;6.980;2024-03-25T06:23:21;11.30;;;1.92;;
52708;SDS011;38606;52.986;6.980;2024-03-25T06:25:51;13.55;;;2.08;;
52708;SDS011;38606;52.986;6.980;2024-03-25T06:28:18;16.10;;;1.90;;
52708;SDS011;38606;52.986;6.980;2024-03-25T06:30:45;8.85;;;2.10;;
52708;SDS011;38606;52.986;6.980;2024-03-25T06:33:30;18.23;;;2.70;;
52708;SDS011;38606;52.986;6.980;2024-03-25T06:36:15;15.60;;;2.45;;
52708;SDS011;38606;52.986;6.980;2024-03-25T06:38:42;10.65;;;2.13;;
52708;SDS011;38606;52.986;6.980;2024-03-25T06:41:08;21.88;;;3.72;;
52708;SDS011;38606;52.986;6.980;2024-03-25T06:43:34;15.10;;;2.92;;
52708;SDS011;38606;52.986;6.980;2024-03-25T06:46:00;9.80;;;2.10;;
52708;SDS011;38606;52.986;6.980;2024-03-25T06:48:25;12.50;;;2.30;;
52708;SDS011;38606;52.986;6.980;2024-03-25T06:50:52;14.50;;;2.50;;
52708;SDS011;38606;52.986;6.980;2024-03-25T06:53:21;21.92;;;3.88;;
52708;SDS011;38606;52.986;6.980;2024-03-25T06:55:54;16.80;;;2.92;;
52708;SDS011;38606;52.986;6.980;2024-03-25T06:58:20;18.60;;;2.40;;
52708;SDS011;38606;52.986;6.980;2024-03-25T07:00:47;14.50;;;2.50;;
52708;SDS011;38606;52.986;6.980;2024-03-25T07:03:17;15.27;;;2.40;;
52708;SDS011;38606;52.986;6.980;2024-03-25T07:05:46;18.38;;;2.95;;
52708;SDS011;38606;52.986;6.980;2024-03-25T07:08:13;15.65;;;2.22;;
52708;SDS011;38606;52.986;6.980;2024-03-25T07:10:38;17.05;;;2.70;;
52708;SDS011;38606;52.986;6.980;2024-03-25T07:13:07;16.95;;;2.67;;
52708;SDS011;38606;52.986;6.980;2024-03-25T07:15:32;12.18;;;2.80;;
52708;SDS011;38606;52.986;6.980;2024-03-25T07:17:58;19.10;;;2.63;;
52708;SDS011;38606;52.986;6.980;2024-03-25T07:20:25;14.32;;;2.17;;
52708;SDS011;38606;52.986;6.980;2024-03-25T07:22:52;15.15;;;2.67;;
52708;SDS011;38606;52.986;6.980;2024-03-25T07:25:20;22.95;;;3.35;;
52708;SDS011;38606;52.986;6.980;2024-03-25T07:27:46;24.17;;;3.50;;
52708;SDS011;38606;52.986;6.980;2024-03-25T07:30:13;15.77;;;2.80;;
52708;SDS011;38606;52.986;6.980;2024-03-25T07:32:39;18.88;;;2.40;;
52708;SDS011;38606;52.986;6.980;2024-03-25T07:35:05;26.55;;;4.05;;
52708;SDS011;38606;52.986;6.980;2024-03-25T07:37:33;21.30;;;2.67;;
52708;SDS011;38606;52.986;6.980;2024-03-25T07:39:58;16.55;;;2.70;;
52708;SDS011;38606;52.986;6.980;2024-03-25T07:42:24;14.68;;;2.63;;
52708;SDS011;38606;52.986;6.980;2024-03-25T07:44:50;16.50;;;2.22;;
52708;SDS011;38606;52.986;6.980;2024-03-25T07:47:16;13.75;;;2.10;;
52708;SDS011;38606;52.986;6.980;2024-03-25T07:49:42;19.20;;;2.70;;
52708;SDS011;38606;52.986;6.980;2024-03-25T07:52:07;13.13;;;2.13;;
52708;SDS011;38606;52.986;6.980;2024-03-25T07:54:33;17.00;;;2.53;;
52708;SDS011;38606;52.986;6.980;2024-03-25T07:57:00;14.40;;;2.10;;
52708;SDS011;38606;52.986;6.980;2024-03-25T07:59:25;16.02;;;2.50;;
52708;SDS011;38606;52.986;6.980;2024-03-25T08:01:51;14.20;;;2.38;;
52708;SDS011;38606;52.986;6.980;2024-03-25T08:04:17;14.05;;;2.63;;
52708;SDS011;38606;52.986;6.980;2024-03-25T08:06:43;13.85;;;2.22;;
52708;SDS011;38606;52.986;6.980;2024-03-25T08:09:08;10.85;;;2.10;;
52708;SDS011;38606;52.986;6.980;2024-03-25T08:11:35;14.80;;;2.90;;
52708;SDS011;38606;52.986;6.980;2024-03-25T08:14:00;16.00;;;3.00;;
52708;SDS011;38606;52.986;6.980;2024-03-25T08:16:26;17.42;;;2.30;;
52708;SDS011;38606;52.986;6.980;2024-03-25T08:18:52;10.50;;;1.63;;
52708;SDS011;38606;52.986;6.980;2024-03-25T08:21:17;10.45;;;1.65;;
52708;SDS011;38606;52.986;6.980;2024-03-25T08:23:46;10.77;;;1.70;;
52708;SDS011;38606;52.986;6.980;2024-03-25T08:26:12;13.00;;;1.77;;
52708;SDS011;38606;52.986;6.980;2024-03-25T08:28:37;10.93;;;1.77;;
52708;SDS011;38606;52.986;6.980;2024-03-25T08:31:03;15.43;;;2.08;;
52708;SDS011;38606;52.986;6.980;2024-03-25T08:33:29;16.38;;;2.05;;
52708;SDS011;38606;52.986;6.980;2024-03-25T08:35:55;19.17;;;2.22;;
52708;SDS011;38606;52.986;6.980;2024-03-25T08:38:21;15.38;;;2.13;;
52708;SDS011;38606;52.986;6.980;2024-03-25T08:40:47;11.60;;;1.95;;
52708;SDS011;38606;52.986;6.980;2024-03-25T08:43:13;10.38;;;2.35;;
52708;SDS011;38606;52.986;6.980;2024-03-25T08:45:38;12.93;;;1.90;;
52708;SDS011;38606;52.986;6.980;2024-03-25T08:48:05;13.48;;;1.80;;
52708;SDS011;38606;52.986;6.980;2024-03-25T08:50:31;11.88;;;1.60;;
52708;SDS011;38606;52.986;6.980;2024-03-25T08:52:57;9.43;;;1.77;;
52708;SDS011;38606;52.986;6.980;2024-03-25T08:55:23;13.32;;;2.30;;
52708;SDS011;38606;52.986;6.980;2024-03-25T08:57:49;13.32;;;1.70;;
52708;SDS011;38606;52.986;6.980;2024-03-25T09:00:16;15.90;;;2.72;;
52708;SDS011;38606;52.986;6.980;2024-03-25T09:02:43;11.82;;;2.80;;
52708;SDS011;38606;52.986;6.980;2024-03-25T09:05:09;6.25;;;1.52;;
52708;SDS011;38606;52.986;6.980;2024-03-25T09:07:35;12.45;;;1.85;;
52708;SDS011;38606;52.986;6.980;2024-03-25T09:10:01;9.15;;;1.60;;
52708;SDS011;38606;52.986;6.980;2024-03-25T09:12:45;9.35;;;1.52;;
52708;SDS011;38606;52.986;6.980;2024-03-25T09:15:11;12.27;;;1.90;;
52708;SDS011;38606;52.986;6.980;2024-03-25T09:17:37;14.05;;;2.13;;
52708;SDS011;38606;52.986;6.980;2024-03-25T09:20:04;6.82;;;1.90;;
52708;SDS011;38606;52.986;6.980;2024-03-25T09:22:41;10.95;;;1.70;;
52708;SDS011;38606;52.986;6.980;2024-03-25T09:25:07;11.98;;;2.30;;
52708;SDS011;38606;52.986;6.980;2024-03-25T09:27:33;11.85;;;1.90;;
52708;SDS011;38606;52.986;6.980;2024-03-25T09:29:59;7.78;;;1.48;;
52708;SDS011;38606;52.986;6.980;2024-03-25T09:32:24;10.45;;;1.80;;
52708;SDS011;38606;52.986;6.980;2024-03-25T09:34:51;13.23;;;1.90;;
52708;SDS011;38606;52.986;6.980;2024-03-25T09:37:17;6.78;;;1.50;;
52708;SDS011;38606;52.986;6.980;2024-03-25T09:39:43;13.43;;;2.65;;
52708;SDS011;38606;52.986;6.980;2024-03-25T09:42:08;13.30;;;1.90;;
52708;SDS011;38606;52.986;6.980;2024-03-25T09:44:39;11.07;;;1.70;;
52708;SDS011;38606;52.986;6.980;2024-03-25T09:47:05;10.45;;;1.65;;
52708;SDS011;38606;52.986;6.980;2024-03-25T09:49:32;7.18;;;1.35;;
52708;SDS011;38606;52.986;6.980;2024-03-25T09:51:58;8.98;;;1.50;;
52708;SDS011;38606;52.986;6.980;2024-03-25T09:54:25;10.10;;;1.60;;
52708;SDS011;38606;52.986;6.980;2024-03-25T09:56:50;8.50;;;1.60;;
52708;SDS011;38606;52.986;6.980;2024-03-25T09:59:17;11.07;;;1.60;;
52708;SDS011;38606;52.986;6.980;2024-03-25T10:01:43;10.18;;;1.60;;
52708;SDS011;38606;52.986;6.980;2024-03-25T10:04:09;11.15;;;2.38;;
52708;SDS011;38606;52.986;6.980;2024-03-25T10:06:35;10.02;;;1.38;;
52708;SDS011;38606;52.986;6.980;2024-03-25T10:09:04;10.73;;;1.77;;
52708;SDS011;38606;52.986;6.980;2024-03-25T10:11:31;11.50;;;1.73;;
52708;SDS011;38606;52.986;6.980;2024-03-25T10:14:00;11.38;;;1.90;;
52708;SDS011;38606;52.986;6.980;2024-03-25T10:16:26;7.93;;;1.65;;
52708;SDS011;38606;52.986;6.980;2024-03-25T10:18:52;12.60;;;1.38;;
52708;SDS011;38606;52.986;6.980;2024-03-25T10:21:19;9.35;;;1.85;;
52708;SDS011;38606;52.986;6.980;2024-03-25T10:23:45;8.27;;;1.23;;
52708;SDS011;38606;52.986;6.980;2024-03-25T10:26:24;7.93;;;1.17;;
52708;SDS011;38606;52.986;6.980;2024-03-25T10:28:58;6.07;;;1.13;;
52708;SDS011;38606;52.986;6.980;2024-03-25T10:31:24;8.50;;;1.40;;
52708;SDS011;38606;52.986;6.980;2024-03-25T10:33:50;6.82;;;1.20;;
52708;SDS011;38606;52.986;6.980;2024-03-25T10:36:16;7.57;;;1.35;;
52708;SDS011;38606;52.986;6.980;2024-03-25T10:38:42;10.85;;;1.27;;
52708;SDS011;38606;52.986;6.980;2024-03-25T10:41:09;9.20;;;1.25;;
52708;SDS011;38606;52.986;6.980;2024-03-25T10:43:39;8.45;;;1.70;;
52708;SDS011;38606;52.986;6.980;2024-03-25T10:46:06;9.90;;;1.75;;
52708;SDS011;38606;52.986;6.980;2024-03-25T10:48:33;9.50;;;2.13;;
52708;SDS011;38606;52.986;6.980;2024-03-25T10:51:02;10.80;;;1.30;;
52708;SDS011;38606;52.986;6.980;2024-03-25T10:53:31;10.77;;;1.40;;
52708;SDS011;38606;52.986;6.980;2024-03-25T10:56:00;8.55;;;1.48;;
52708;SDS011;38606;52.986;6.980;2024-03-25T10:58:26;8.68;;;1.45;;
52708;SDS011;38606;52.986;6.980;2024-03-25T11:00:52;6.30;;;1.48;;
52708;SDS011;38606;52.986;6.980;2024-03-25T11:03:21;8.75;;;1.30;;
52708;SDS011;38606;52.986;6.980;2024-03-25T11:05:48;9.80;;;1.55;;
52708;SDS011;38606;52.986;6.980;2024-03-25T11:08:15;10.00;;;2.00;;
52708;SDS011;38606;52.986;6.980;2024-03-25T11:10:42;8.57;;;1.30;;
52708;SDS011;38606;52.986;6.980;2024-03-25T11:13:12;9.70;;;1.50;;
52708;SDS011;38606;52.986;6.980;2024-03-25T11:15:43;8.48;;;1.73;;
52708;SDS011;38606;52.986;6.980;2024-03-25T11:18:16;8.63;;;1.23;;
52708;SDS011;38606;52.986;6.980;2024-03-25T11:20:43;10.13;;;1.75;;
52708;SDS011;38606;52.986;6.980;2024-03-25T11:23:10;5.93;;;1.35;;
52708;SDS011;38606;52.986;6.980;2024-03-25T11:25:37;9.77;;;1.90;;
52708;SDS011;38606;52.986;6.980;2024-03-25T11:28:04;10.45;;;1.63;;
52708;SDS011;38606;52.986;6.980;2024-03-25T11:30:30;7.07;;;1.30;;
52708;SDS011;38606;52.986;6.980;2024-03-25T11:32:56;8.57;;;1.55;;
52708;SDS011;38606;52.986;6.980;2024-03-25T11:35:24;12.48;;;1.80;;
52708;SDS011;38606;52.986;6.980;2024-03-25T11:37:50;7.07;;;1.60;;
52708;SDS011;38606;52.986;6.980;2024-03-25T11:40:17;11.13;;;1.52;;
52708;SDS011;38606;52.986;6.980;2024-03-25T11:42:44;8.82;;;1.35;;
52708;SDS011;38606;52.986;6.980;2024-03-25T11:45:15;8.50;;;1.30;;
52708;SDS011;38606;52.986;6.980;2024-03-25T11:47:42;11.07;;;1.52;;
52708;SDS011;38606;52.986;6.980;2024-03-25T11:50:12;11.65;;;2.22;;
52708;SDS011;38606;52.986;6.980;2024-03-25T11:52:39;9.45;;;1.50;;
52708;SDS011;38606;52.986;6.980;2024-03-25T11:55:05;8.68;;;1.33;;
52708;SDS011;38606;52.986;6.980;2024-03-25T11:57:33;7.63;;;1.45;;
52708;SDS011;38606;52.986;6.980;2024-03-25T12:00:00;9.43;;;1.35;;
52708;SDS011;38606;52.986;6.980;2024-03-25T12:02:28;7.05;;;1.65;;
52708;SDS011;38606;52.986;6.980;2024-03-25T12:04:54;5.88;;;1.40;;
52708;SDS011;38606;52.986;6.980;2024-03-25T12:07:20;9.73;;;1.50;;
52708;SDS011;38606;52.986;6.980;2024-03-25T12:09:46;12.52;;;1.75;;
52708;SDS011;38606;52.986;6.980;2024-03-25T12:12:30;9.27;;;1.83;;
52708;SDS011;38606;52.986;6.980;2024-03-25T12:14:58;7.45;;;1.73;;
52708;SDS011;38606;52.986;6.980;2024-03-25T12:17:24;10.60;;;1.88;;
52708;SDS011;38606;52.986;6.980;2024-03-25T12:20:06;9.18;;;1.60;;
52708;SDS011;38606;52.986;6.980;2024-03-25T12:22:38;7.63;;;1.42;;
52708;SDS011;38606;52.986;6.980;2024-03-25T12:25:05;7.68;;;1.40;;
52708;SDS011;38606;52.986;6.980;2024-03-25T12:27:33;13.43;;;2.38;;
52708;SDS011;38606;52.986;6.980;2024-03-25T12:30:06;12.68;;;1.77;;
52708;SDS011;38606;52.986;6.980;2024-03-25T12:35:07;4.15;;;1.23;;
52708;SDS011;38606;52.986;6.980;2024-03-25T12:37:40;6.45;;;1.40;;
52708;SDS011;38606;52.986;6.980;2024-03-25T12:40:06;8.50;;;2.00;;
52708;SDS011;38606;52.986;6.980;2024-03-25T12:42:34;7.03;;;1.45;;
52708;SDS011;38606;52.986;6.980;2024-03-25T12:45:00;8.70;;;1.60;;
52708;SDS011;38606;52.986;6.980;2024-03-25T12:47:28;6.10;;;1.63;;
52708;SDS011;38606;52.986;6.980;2024-03-25T12:49:54;8.85;;;1.40;;
52708;SDS011;38606;52.986;6.980;2024-03-25T12:52:19;11.40;;;2.08;;
52708;SDS011;38606;52.986;6.980;2024-03-25T12:54:46;7.97;;;2.00;;
52708;SDS011;38606;52.986;6.980;2024-03-25T12:57:12;8.80;;;1.20;;
52708;SDS011;38606;52.986;6.980;2024-03-25T12:59:38;8.57;;;1.17;;
52708;SDS011;38606;52.986;6.980;2024-03-25T13:02:03;8.30;;;1.63;;
52708;SDS011;38606;52.986;6.980;2024-03-25T13:04:30;8.13;;;1.85;;
52708;SDS011;38606;52.986;6.980;2024-03-25T13:06:55;8.65;;;1.52;;
52708;SDS011;38606;52.986;6.980;2024-03-25T13:09:21;7.93;;;1.55;;
52708;SDS011;38606;52.986;6.980;2024-03-25T13:11:47;12.30;;;1.40;;
52708;SDS011;38606;52.986;6.980;2024-03-25T13:14:13;7.57;;;1.50;;
52708;SDS011;38606;52.986;6.980;2024-03-25T13:16:41;7.13;;;1.48;;
52708;SDS011;38606;52.986;6.980;2024-03-25T13:19:06;8.88;;;1.50;;
52708;SDS011;38606;52.986;6.980;2024-03-25T13:21:32;10.02;;;1.60;;
52708;SDS011;38606;52.986;6.980;2024-03-25T13:23:58;4.10;;;1.02;;
52708;SDS011;38606;52.986;6.980;2024-03-25T13:26:24;11.13;;;1.42;;
52708;SDS011;38606;52.986;6.980;2024-03-25T13:28:51;5.47;;;1.42;;
52708;SDS011;38606;52.986;6.980;2024-03-25T13:31:17;10.45;;;1.65;;
52708;SDS011;38606;52.986;6.980;2024-03-25T13:33:42;7.15;;;1.30;;
52708;SDS011;38606;52.986;6.980;2024-03-25T13:36:08;7.70;;;1.80;;
52708;SDS011;38606;52.986;6.980;2024-03-25T13:38:34;4.47;;;0.90;;
52708;SDS011;38606;52.986;6.980;2024-03-25T13:41:00;3.83;;;0.90;;
52708;SDS011;38606;52.986;6.980;2024-03-25T13:43:26;3.97;;;1.13;;
52708;SDS011;38606;52.986;6.980;2024-03-25T13:45:52;2.50;;;0.80;;
52708;SDS011;38606;52.986;6.980;2024-03-25T13:48:18;3.97;;;1.00;;
52708;SDS011;38606;52.986;6.980;2024-03-25T13:50:44;5.63;;;1.17;;
52708;SDS011;38606;52.986;6.980;2024-03-25T13:53:10;4.82;;;1.10;;
52708;SDS011;38606;52.986;6.980;2024-03-25T13:55:36;7.40;;;1.20;;
52708;SDS011;38606;52.986;6.980;2024-03-25T13:58:01;5.22;;;1.27;;
52708;SDS011;38606;52.986;6.980;2024-03-25T14:00:28;6.22;;;1.27;;
52708;SDS011;38606;52.986;6.980;2024-03-25T14:02:54;5.53;;;1.08;;
52708;SDS011;38606;52.986;6.980;2024-03-25T14:05:23;4.47;;;0.82;;
52708;SDS011;38606;52.986;6.980;2024-03-25T14:07:49;3.67;;;1.08;;
52708;SDS011;38606;52.986;6.980;2024-03-25T14:10:15;6.47;;;0.98;;
52708;SDS011;38606;52.986;6.980;2024-03-25T14:12:40;5.97;;;1.40;;
52708;SDS011;38606;52.986;6.980;2024-03-25T14:15:07;5.70;;;1.17;;
52708;SDS011;38606;52.986;6.980;2024-03-25T14:17:33;6.07;;;1.15;;
52708;SDS011;38606;52.986;6.980;2024-03-25T14:19:59;7.28;;;1.35;;
52708;SDS011;38606;52.986;6.980;2024-03-25T14:22:24;7.68;;;1.58;;
52708;SDS011;38606;52.986;6.980;2024-03-25T14:24:50;8.60;;;1.48;;
52708;SDS011;38606;52.986;6.980;2024-03-25T14:27:21;8.80;;;1.30;;
52708;SDS011;38606;52.986;6.980;2024-03-25T14:29:48;7.90;;;1.50;;
52708;SDS011;38606;52.986;6.980;2024-03-25T14:32:14;5.57;;;1.20;;
52708;SDS011;38606;52.986;6.980;2024-03-25T14:34:39;4.90;;;1.20;;
52708;SDS011;38606;52.986;6.980;2024-03-25T14:37:05;6.63;;;1.65;;